sensor_id;sensor_type;location;lat;lon;timestamp;pressure;altitude;pressure_sealevel;temperature;humidity
21504;BME280;10913;51.992;9.228;2023-06-10T00:02:15;100325.81;;;20.01;71.18
21504;BME280;10913;51.992;9.228;2023-06-10T00:04:42;100326.69;;;20.02;71.27
21504;BME280;10913;51.992;9.228;2023-06-10T00:07:08;100323.28;;;19.98;71.23
21504;BME280;10913;51.992;9.228;2023-06-10T00:09:36;100327.84;;;19.96;72.09
21504;BME280;10913;51.992;9.228;2023-06-10T00:12:04;100323.47;;;19.93;71.75
21504;BME280;10913;51.992;9.228;2023-06-10T00:14:30;100319.31;;;19.86;72.30
21504;BME280;10913;51.992;9.228;2023-06-10T00:16:55;100325.81;;;19.81;73.05
21504;BME280;10913;51.992;9.228;2023-06-10T00:19:22;100324.25;;;19.77;72.79
21504;BME280;10913;51.992;9.228;2023-06-10T00:21:51;100321.69;;;19.74;73.01
21504;BME280;10913;51.992;9.228;2023-06-10T00:24:17;100322.69;;;19.71;73.11
21504;BME280;10913;51.992;9.228;2023-06-10T00:26:43;100321.00;;;19.69;73.45
21504;BME280;10913;51.992;9.228;2023-06-10T00:29:08;100316.66;;;19.66;73.57
21504;BME280;10913;51.992;9.228;2023-06-10T00:31:36;100315.78;;;19.66;73.11
21504;BME280;10913;51.992;9.228;2023-06-10T00:34:01;100312.28;;;19.64;73.61
21504;BME280;10913;51.992;9.228;2023-06-10T00:36:27;100315.09;;;19.60;73.43
21504;BME280;10913;51.992;9.228;2023-06-10T00:38:52;100310.84;;;19.56;73.93
21504;BME280;10913;51.992;9.228;2023-06-10T00:41:18;100314.28;;;19.58;73.65
21504;BME280;10913;51.992;9.228;2023-06-10T00:43:43;100317.66;;;19.64;73.03
21504;BME280;10913;51.992;9.228;2023-06-10T00:46:10;100317.53;;;19.67;72.23
21504;BME280;10913;51.992;9.228;2023-06-10T00:48:37;100311.22;;;19.68;71.68
21504;BME280;10913;51.992;9.228;2023-06-10T00:51:05;100310.28;;;19.69;71.74
21504;BME280;10913;51.992;9.228;2023-06-10T00:53:31;100312.16;;;19.67;71.76
21504;BME280;10913;51.992;9.228;2023-06-10T00:55:57;100308.81;;;19.61;71.41
21504;BME280;10913;51.992;9.228;2023-06-10T00:58:23;100314.69;;;19.49;72.36
21504;BME280;10913;51.992;9.228;2023-06-10T01:00:49;100315.66;;;19.47;72.41
21504;BME280;10913;51.992;9.228;2023-06-10T01:03:15;100303.22;;;19.46;72.86
21504;BME280;10913;51.992;9.228;2023-06-10T01:05:42;100306.88;;;19.43;72.86
21504;BME280;10913;51.992;9.228;2023-06-10T01:08:19;100312.38;;;19.40;72.71
21504;BME280;10913;51.992;9.228;2023-06-10T01:10:54;100307.44;;;19.31;73.28
21504;BME280;10913;51.992;9.228;2023-06-10T01:13:22;100310.34;;;19.25;74.13
21504;BME280;10913;51.992;9.228;2023-06-10T01:15:49;100309.66;;;19.20;73.81
21504;BME280;10913;51.992;9.228;2023-06-10T01:18:15;100315.25;;;19.15;73.82
21504;BME280;10913;51.992;9.228;2023-06-10T01:20:42;100320.72;;;19.12;74.05
21504;BME280;10913;51.992;9.228;2023-06-10T01:23:10;100311.13;;;19.07;74.15
21504;BME280;10913;51.992;9.228;2023-06-10T01:25:38;100322.84;;;19.04;74.52
21504;BME280;10913;51.992;9.228;2023-06-10T01:33:31;100332.94;;;18.98;74.93
21504;BME280;10913;51.992;9.228;2023-06-10T01:35:59;100325.97;;;18.93;75.23
21504;BME280;10913;51.992;9.228;2023-06-10T01:38:30;100323.34;;;18.92;75.08
21504;BME280;10913;51.992;9.228;2023-06-10T01:40:57;100321.78;;;18.86;75.29
21504;BME280;10913;51.992;9.228;2023-06-10T01:43:23;100317.47;;;18.82;75.76
21504;BME280;10913;51.992;9.228;2023-06-10T01:45:48;100323.03;;;18.78;75.55
21504;BME280;10913;51.992;9.228;2023-06-10T01:48:14;100316.97;;;18.73;76.05
21504;BME280;10913;51.992;9.228;2023-06-10T01:50:39;100326.94;;;18.69;76.20
21504;BME280;10913;51.992;9.228;2023-06-10T01:53:05;100328.16;;;18.61;76.99
21504;BME280;10913;51.992;9.228;2023-06-10T01:55:31;100324.78;;;18.55;76.97
21504;BME280;10913;51.992;9.228;2023-06-10T01:57:56;100332.00;;;18.53;76.92
21504;BME280;10913;51.992;9.228;2023-06-10T02:00:22;100329.38;;;18.52;77.27
21504;BME280;10913;51.992;9.228;2023-06-10T02:02:47;100328.38;;;18.54;76.76
21504;BME280;10913;51.992;9.228;2023-06-10T02:05:12;100327.50;;;18.54;76.24
21504;BME280;10913;51.992;9.228;2023-06-10T02:07:38;100333.78;;;18.53;76.57
21504;BME280;10913;51.992;9.228;2023-06-10T02:10:04;100339.25;;;18.50;77.21
21504;BME280;10913;51.992;9.228;2023-06-10T02:12:30;100338.59;;;18.43;77.29
21504;BME280;10913;51.992;9.228;2023-06-10T02:14:55;100347.06;;;18.33;77.74
21504;BME280;10913;51.992;9.228;2023-06-10T02:17:21;100350.22;;;18.19;78.19
21504;BME280;10913;51.992;9.228;2023-06-10T02:19:46;100357.72;;;18.09;78.36
21504;BME280;10913;51.992;9.228;2023-06-10T02:22:17;100361.44;;;18.05;78.65
21504;BME280;10913;51.992;9.228;2023-06-10T02:24:43;100363.41;;;18.00;79.36
21504;BME280;10913;51.992;9.228;2023-06-10T02:27:08;100359.06;;;17.98;78.99
21504;BME280;10913;51.992;9.228;2023-06-10T02:29:36;100361.78;;;17.96;78.86
21504;BME280;10913;51.992;9.228;2023-06-10T02:32:02;100368.13;;;17.94;79.55
21504;BME280;10913;51.992;9.228;2023-06-10T02:34:28;100362.94;;;17.89;79.34
21504;BME280;10913;51.992;9.228;2023-06-10T02:36:53;100372.78;;;17.87;79.51
21504;BME280;10913;51.992;9.228;2023-06-10T02:39:19;100374.66;;;17.85;79.48
21504;BME280;10913;51.992;9.228;2023-06-10T02:41:44;100371.25;;;17.80;79.84
21504;BME280;10913;51.992;9.228;2023-06-10T02:44:10;100367.03;;;17.74;79.91
21504;BME280;10913;51.992;9.228;2023-06-10T02:46:35;100381.47;;;17.69;80.20
21504;BME280;10913;51.992;9.228;2023-06-10T02:49:00;100381.56;;;17.66;80.23
21504;BME280;10913;51.992;9.228;2023-06-10T02:51:26;100382.66;;;17.58;80.68
21504;BME280;10913;51.992;9.228;2023-06-10T02:53:52;100380.09;;;17.55;80.59
21504;BME280;10913;51.992;9.228;2023-06-10T02:56:19;100377.53;;;17.52;80.80
21504;BME280;10913;51.992;9.228;2023-06-10T02:58:45;100370.44;;;17.51;81.24
21504;BME280;10913;51.992;9.228;2023-06-10T03:01:12;100375.88;;;17.48;80.97
21504;BME280;10913;51.992;9.228;2023-06-10T03:03:37;100371.47;;;17.47;81.17
21504;BME280;10913;51.992;9.228;2023-06-10T03:06:06;100373.38;;;17.44;80.85
21504;BME280;10913;51.992;9.228;2023-06-10T03:08:31;100380.81;;;17.34;81.35
21504;BME280;10913;51.992;9.228;2023-06-10T03:10:57;100376.69;;;17.24;81.66
21504;BME280;10913;51.992;9.228;2023-06-10T03:13:23;100377.06;;;17.13;82.44
21504;BME280;10913;51.992;9.228;2023-06-10T03:15:49;100383.38;;;17.11;82.35
21504;BME280;10913;51.992;9.228;2023-06-10T03:18:14;100373.63;;;17.10;82.97
21504;BME280;10913;51.992;9.228;2023-06-10T03:20:40;100383.31;;;17.12;82.35
21504;BME280;10913;51.992;9.228;2023-06-10T03:23:05;100378.81;;;17.14;82.68
21504;BME280;10913;51.992;9.228;2023-06-10T03:25:33;100387.59;;;17.18;82.08
21504;BME280;10913;51.992;9.228;2023-06-10T03:27:59;100386.59;;;17.20;82.14
21504;BME280;10913;51.992;9.228;2023-06-10T03:30:24;100381.47;;;17.14;82.66
21504;BME280;10913;51.992;9.228;2023-06-10T03:32:49;100382.69;;;17.04;82.67
21504;BME280;10913;51.992;9.228;2023-06-10T03:35:15;100392.63;;;16.99;82.97
21504;BME280;10913;51.992;9.228;2023-06-10T03:37:40;100382.94;;;16.97;83.18
21504;BME280;10913;51.992;9.228;2023-06-10T03:40:07;100390.03;;;16.98;83.15
21504;BME280;10913;51.992;9.228;2023-06-10T03:42:34;100391.75;;;16.99;83.48
21504;BME280;10913;51.992;9.228;2023-06-10T03:45:00;100396.03;;;17.04;83.67
21504;BME280;10913;51.992;9.228;2023-06-10T03:47:25;100395.06;;;17.07;82.89
21504;BME280;10913;51.992;9.228;2023-06-10T03:49:50;100390.69;;;17.04;83.13
21504;BME280;10913;51.992;9.228;2023-06-10T03:52:17;100394.19;;;17.06;82.93
21504;BME280;10913;51.992;9.228;2023-06-10T03:54:42;100391.56;;;17.05;83.28
21504;BME280;10913;51.992;9.228;2023-06-10T03:57:08;100398.75;;;17.03;83.29
21504;BME280;10913;51.992;9.228;2023-06-10T03:59:36;100397.81;;;17.04;82.81
21504;BME280;10913;51.992;9.228;2023-06-10T04:02:01;100396.91;;;17.05;83.31
21504;BME280;10913;51.992;9.228;2023-06-10T04:04:27;100398.69;;;17.04;83.39
21504;BME280;10913;51.992;9.228;2023-06-10T04:06:52;100387.25;;;17.01;83.48
21504;BME280;10913;51.992;9.228;2023-06-10T04:09:18;100389.91;;;17.01;84.33
21504;BME280;10913;51.992;9.228;2023-06-10T04:11:43;100396.91;;;17.05;83.87
21504;BME280;10913;51.992;9.228;2023-06-10T04:14:09;100399.53;;;17.06;83.88
21504;BME280;10913;51.992;9.228;2023-06-10T04:16:34;100397.78;;;17.05;84.05
21504;BME280;10913;51.992;9.228;2023-06-10T04:19:00;100404.00;;;17.06;84.40
21504;BME280;10913;51.992;9.228;2023-06-10T04:21:26;100396.91;;;17.05;84.51
21504;BME280;10913;51.992;9.228;2023-06-10T04:23:52;100400.50;;;17.04;84.81
21504;BME280;10913;51.992;9.228;2023-06-10T04:26:17;100399.66;;;17.02;84.99
21504;BME280;10913;51.992;9.228;2023-06-10T04:28:43;100402.28;;;17.03;84.94
21504;BME280;10913;51.992;9.228;2023-06-10T04:31:08;100407.59;;;17.05;85.34
21504;BME280;10913;51.992;9.228;2023-06-10T04:33:35;100410.16;;;17.08;85.63
21504;BME280;10913;51.992;9.228;2023-06-10T04:36:00;100408.31;;;17.10;85.16
21504;BME280;10913;51.992;9.228;2023-06-10T04:38:26;100413.47;;;17.16;84.81
21504;BME280;10913;51.992;9.228;2023-06-10T04:40:51;100422.31;;;17.18;84.83
21504;BME280;10913;51.992;9.228;2023-06-10T04:43:17;100423.09;;;17.20;85.04
21504;BME280;10913;51.992;9.228;2023-06-10T04:45:42;100417.66;;;17.23;84.85
21504;BME280;10913;51.992;9.228;2023-06-10T04:48:11;100414.00;;;17.27;84.95
21504;BME280;10913;51.992;9.228;2023-06-10T04:50:37;100419.13;;;17.33;84.45
21504;BME280;10913;51.992;9.228;2023-06-10T04:53:02;100411.88;;;17.38;84.74
21504;BME280;10913;51.992;9.228;2023-06-10T04:55:28;100417.91;;;17.43;84.77
21504;BME280;10913;51.992;9.228;2023-06-10T04:57:54;100409.78;;;17.46;85.28
21504;BME280;10913;51.992;9.228;2023-06-10T05:00:20;100410.56;;;17.50;84.73
21504;BME280;10913;51.992;9.228;2023-06-10T05:02:46;100414.94;;;17.52;84.62
21504;BME280;10913;51.992;9.228;2023-06-10T05:05:16;100401.47;;;17.55;83.98
21504;BME280;10913;51.992;9.228;2023-06-10T05:07:41;100405.78;;;17.60;83.90
21504;BME280;10913;51.992;9.228;2023-06-10T05:10:07;100404.81;;;17.62;84.05
21504;BME280;10913;51.992;9.228;2023-06-10T05:12:32;100410.09;;;17.65;83.92
21504;BME280;10913;51.992;9.228;2023-06-10T05:14:57;100410.91;;;17.67;84.47
21504;BME280;10913;51.992;9.228;2023-06-10T05:17:23;100414.44;;;17.68;84.89
21504;BME280;10913;51.992;9.228;2023-06-10T05:19:49;100408.09;;;17.72;84.17
21504;BME280;10913;51.992;9.228;2023-06-10T05:22:15;100401.56;;;17.79;83.77
21504;BME280;10913;51.992;9.228;2023-06-10T05:24:41;100408.47;;;17.86;83.79
21504;BME280;10913;51.992;9.228;2023-06-10T05:27:06;100396.69;;;17.92;83.04
21504;BME280;10913;51.992;9.228;2023-06-10T05:29:32;100394.59;;;18.00;82.78
21504;BME280;10913;51.992;9.228;2023-06-10T05:31:58;100405.97;;;18.06;82.81
21504;BME280;10913;51.992;9.228;2023-06-10T05:34:28;100396.84;;;18.12;82.66
21504;BME280;10913;51.992;9.228;2023-06-10T05:36:53;100393.09;;;18.17;82.21
21504;BME280;10913;51.992;9.228;2023-06-10T05:39:18;100397.38;;;18.21;82.44
21504;BME280;10913;51.992;9.228;2023-06-10T05:41:44;100392.84;;;18.23;82.85
21504;BME280;10913;51.992;9.228;2023-06-10T05:44:09;100393.72;;;18.24;82.11
21504;BME280;10913;51.992;9.228;2023-06-10T05:46:34;100388.16;;;18.30;81.91
21504;BME280;10913;51.992;9.228;2023-06-10T05:49:00;100383.47;;;18.37;81.80
21504;BME280;10913;51.992;9.228;2023-06-10T05:51:25;100387.63;;;18.44;82.17
21504;BME280;10913;51.992;9.228;2023-06-10T05:53:51;100383.81;;;18.51;82.09
21504;BME280;10913;51.992;9.228;2023-06-10T05:56:16;100380.91;;;18.57;82.45
21504;BME280;10913;51.992;9.228;2023-06-10T05:58:41;100386.84;;;18.65;81.96
21504;BME280;10913;51.992;9.228;2023-06-10T06:01:07;100379.47;;;18.72;82.73
21504;BME280;10913;51.992;9.228;2023-06-10T06:03:32;100380.13;;;18.78;81.87
21504;BME280;10913;51.992;9.228;2023-06-10T06:05:58;100378.94;;;18.85;81.51
21504;BME280;10913;51.992;9.228;2023-06-10T06:08:23;100374.28;;;18.90;82.21
21504;BME280;10913;51.992;9.228;2023-06-10T06:10:49;100381.25;;;18.95;82.56
21504;BME280;10913;51.992;9.228;2023-06-10T06:13:14;100382.72;;;19.02;82.39
21504;BME280;10913;51.992;9.228;2023-06-10T06:15:40;100375.41;;;19.07;82.19
21504;BME280;10913;51.992;9.228;2023-06-10T06:18:05;100376.09;;;19.12;82.70
21504;BME280;10913;51.992;9.228;2023-06-10T06:20:31;100380.34;;;19.17;82.84
21504;BME280;10913;51.992;9.228;2023-06-10T06:22:56;100378.44;;;19.19;84.33
21504;BME280;10913;51.992;9.228;2023-06-10T06:25:21;100383.72;;;19.21;84.53
21504;BME280;10913;51.992;9.228;2023-06-10T06:27:47;100383.63;;;19.24;85.57
21504;BME280;10913;51.992;9.228;2023-06-10T06:30:12;100383.72;;;19.21;83.87
21504;BME280;10913;51.992;9.228;2023-06-10T06:32:37;100387.63;;;19.14;82.49
21504;BME280;10913;51.992;9.228;2023-06-10T06:35:03;100384.13;;;19.12;82.90
21504;BME280;10913;51.992;9.228;2023-06-10T06:37:31;100391.22;;;19.13;82.32
21504;BME280;10913;51.992;9.228;2023-06-10T06:39:57;100399.44;;;19.08;82.12
21504;BME280;10913;51.992;9.228;2023-06-10T06:42:23;100398.56;;;19.08;82.54
21504;BME280;10913;51.992;9.228;2023-06-10T06:44:48;100397.22;;;18.98;83.54
21504;BME280;10913;51.992;9.228;2023-06-10T06:47:14;100395.69;;;18.90;83.82
21504;BME280;10913;51.992;9.228;2023-06-10T06:49:39;100401.75;;;18.96;83.32
21504;BME280;10913;51.992;9.228;2023-06-10T06:52:05;100393.44;;;19.02;83.69
21504;BME280;10913;51.992;9.228;2023-06-10T06:54:31;100393.09;;;19.11;83.96
21504;BME280;10913;51.992;9.228;2023-06-10T06:56:56;100403.41;;;19.20;83.39
21504;BME280;10913;51.992;9.228;2023-06-10T06:59:22;100398.69;;;19.26;83.14
21504;BME280;10913;51.992;9.228;2023-06-10T07:01:47;100400.25;;;19.32;82.76
21504;BME280;10913;51.992;9.228;2023-06-10T07:04:14;100402.69;;;19.38;83.47
21504;BME280;10913;51.992;9.228;2023-06-10T07:06:40;100394.19;;;19.49;83.36
21504;BME280;10913;51.992;9.228;2023-06-10T07:09:07;100400.06;;;19.58;83.14
21504;BME280;10913;51.992;9.228;2023-06-10T07:11:32;100403.25;;;19.68;83.03
21504;BME280;10913;51.992;9.228;2023-06-10T07:13:58;100405.72;;;19.73;83.48
21504;BME280;10913;51.992;9.228;2023-06-10T07:16:23;100404.59;;;19.78;83.18
21504;BME280;10913;51.992;9.228;2023-06-10T07:18:48;100403.25;;;19.88;82.27
21504;BME280;10913;51.992;9.228;2023-06-10T07:21:14;100410.91;;;19.98;82.80
21504;BME280;10913;51.992;9.228;2023-06-10T07:23:42;100408.94;;;20.01;82.01
21504;BME280;10913;51.992;9.228;2023-06-10T07:26:08;100411.38;;;20.07;81.88
21504;BME280;10913;51.992;9.228;2023-06-10T07:28:36;100410.97;;;20.16;81.97
21504;BME280;10913;51.992;9.228;2023-06-10T07:31:02;100413.25;;;20.25;81.96
21504;BME280;10913;51.992;9.228;2023-06-10T07:33:27;100413.72;;;20.35;81.12
21504;BME280;10913;51.992;9.228;2023-06-10T07:35:52;100417.53;;;20.50;81.09
21504;BME280;10913;51.992;9.228;2023-06-10T07:38:18;100403.25;;;20.68;82.51
21504;BME280;10913;51.992;9.228;2023-06-10T07:40:43;100405.22;;;20.83;82.11
21504;BME280;10913;51.992;9.228;2023-06-10T07:43:08;100406.22;;;20.99;81.22
21504;BME280;10913;51.992;9.228;2023-06-10T07:45:34;100407.69;;;21.07;78.97
21504;BME280;10913;51.992;9.228;2023-06-10T07:47:59;100411.53;;;21.20;78.49
21504;BME280;10913;51.992;9.228;2023-06-10T07:50:24;100417.13;;;21.34;78.90
21504;BME280;10913;51.992;9.228;2023-06-10T07:52:50;100414.69;;;21.47;77.90
21504;BME280;10913;51.992;9.228;2023-06-10T07:55:15;100412.91;;;21.64;77.91
21504;BME280;10913;51.992;9.228;2023-06-10T07:57:41;100409.28;;;21.83;77.62
21504;BME280;10913;51.992;9.228;2023-06-10T08:00:07;100404.53;;;21.88;76.55
21504;BME280;10913;51.992;9.228;2023-06-10T08:02:33;100408.66;;;21.95;77.48
21504;BME280;10913;51.992;9.228;2023-06-10T08:04:58;100406.63;;;22.00;76.40
21504;BME280;10913;51.992;9.228;2023-06-10T08:07:24;100402.81;;;22.04;76.24
21504;BME280;10913;51.992;9.228;2023-06-10T08:09:50;100399.81;;;22.10;75.47
21504;BME280;10913;51.992;9.228;2023-06-10T08:12:15;100409.47;;;22.14;74.90
21504;BME280;10913;51.992;9.228;2023-06-10T08:14:41;100409.59;;;22.28;76.64
21504;BME280;10913;51.992;9.228;2023-06-10T08:17:06;100404.44;;;22.41;75.83
21504;BME280;10913;51.992;9.228;2023-06-10T08:19:32;100405.38;;;22.57;74.76
21504;BME280;10913;51.992;9.228;2023-06-10T08:21:57;100401.97;;;22.69;74.97
21504;BME280;10913;51.992;9.228;2023-06-10T08:24:22;100407.03;;;22.76;74.56
21504;BME280;10913;51.992;9.228;2023-06-10T08:26:48;100414.56;;;22.86;73.31
21504;BME280;10913;51.992;9.228;2023-06-10T08:29:13;100410.13;;;23.01;73.28
21504;BME280;10913;51.992;9.228;2023-06-10T08:31:43;100411.50;;;23.24;73.28
21504;BME280;10913;51.992;9.228;2023-06-10T08:34:09;100412.19;;;23.43;71.93
21504;BME280;10913;51.992;9.228;2023-06-10T08:36:34;100424.06;;;23.56;71.53
21504;BME280;10913;51.992;9.228;2023-06-10T08:39:01;100416.19;;;23.67;70.78
21504;BME280;10913;51.992;9.228;2023-06-10T08:41:28;100418.88;;;23.67;69.35
21504;BME280;10913;51.992;9.228;2023-06-10T08:44:02;100408.31;;;23.79;70.12
21504;BME280;10913;51.992;9.228;2023-06-10T08:46:31;100409.16;;;23.95;70.45
21504;BME280;10913;51.992;9.228;2023-06-10T08:49:00;100402.66;;;24.13;70.87
21504;BME280;10913;51.992;9.228;2023-06-10T08:51:29;100409.16;;;24.25;69.01
21504;BME280;10913;51.992;9.228;2023-06-10T08:54:01;100411.97;;;24.52;69.80
21504;BME280;10913;51.992;9.228;2023-06-10T08:56:28;100404.47;;;24.57;66.81
21504;BME280;10913;51.992;9.228;2023-06-10T08:58:56;100403.47;;;24.72;66.65
21504;BME280;10913;51.992;9.228;2023-06-10T09:01:23;100406.59;;;24.94;65.93
21504;BME280;10913;51.992;9.228;2023-06-10T09:03:49;100404.38;;;25.28;66.94
21504;BME280;10913;51.992;9.228;2023-06-10T09:06:15;100397.03;;;25.57;67.64
21504;BME280;10913;51.992;9.228;2023-06-10T09:08:42;100398.06;;;25.68;66.19
21504;BME280;10913;51.992;9.228;2023-06-10T09:11:07;100398.75;;;25.85;63.08
21504;BME280;10913;51.992;9.228;2023-06-10T09:13:33;100391.31;;;26.01;63.01
21504;BME280;10913;51.992;9.228;2023-06-10T09:15:58;100384.19;;;26.13;62.85
21504;BME280;10913;51.992;9.228;2023-06-10T09:18:26;100382.22;;;26.27;60.92
21504;BME280;10913;51.992;9.228;2023-06-10T09:20:52;100376.44;;;26.33;64.75
21504;BME280;10913;51.992;9.228;2023-06-10T09:23:17;100379.00;;;26.48;66.18
21504;BME280;10913;51.992;9.228;2023-06-10T09:25:43;100384.84;;;26.67;64.58
21504;BME280;10913;51.992;9.228;2023-06-10T09:28:15;100382.53;;;26.86;66.32
21504;BME280;10913;51.992;9.228;2023-06-10T09:30:40;100381.44;;;27.01;65.60
21504;BME280;10913;51.992;9.228;2023-06-10T09:33:11;100379.78;;;27.12;64.00
21504;BME280;10913;51.992;9.228;2023-06-10T09:35:47;100385.09;;;27.13;63.57
21504;BME280;10913;51.992;9.228;2023-06-10T09:38:19;100385.56;;;27.31;64.07
21504;BME280;10913;51.992;9.228;2023-06-10T09:40:53;100387.84;;;27.37;61.63
21504;BME280;10913;51.992;9.228;2023-06-10T09:43:19;100374.19;;;27.50;63.08
21504;BME280;10913;51.992;9.228;2023-06-10T09:45:47;100376.06;;;27.73;63.36
21504;BME280;10913;51.992;9.228;2023-06-10T09:48:13;100375.41;;;27.93;62.71
21504;BME280;10913;51.992;9.228;2023-06-10T09:50:45;100375.44;;;28.16;62.72
21504;BME280;10913;51.992;9.228;2023-06-10T09:53:11;100379.34;;;28.35;61.44
21504;BME280;10913;51.992;9.228;2023-06-10T09:55:41;100376.25;;;28.51;60.93
21504;BME280;10913;51.992;9.228;2023-06-10T09:58:06;100375.13;;;28.65;61.26
21504;BME280;10913;51.992;9.228;2023-06-10T10:00:33;100374.16;;;28.77;60.69
21504;BME280;10913;51.992;9.228;2023-06-10T10:02:59;100379.34;;;28.80;61.03
21504;BME280;10913;51.992;9.228;2023-06-10T10:05:25;100375.88;;;28.78;59.79
21504;BME280;10913;51.992;9.228;2023-06-10T10:07:51;100376.75;;;28.67;60.94
21504;BME280;10913;51.992;9.228;2023-06-10T10:10:19;100381.44;;;28.65;61.13
21504;BME280;10913;51.992;9.228;2023-06-10T10:12:47;100375.75;;;28.68;59.86
21504;BME280;10913;51.992;9.228;2023-06-10T10:15:12;100385.78;;;28.68;58.66
21504;BME280;10913;51.992;9.228;2023-06-10T10:20:27;100384.56;;;28.83;56.56
21504;BME280;10913;51.992;9.228;2023-06-10T10:22:57;100383.03;;;28.34;56.39
21504;BME280;10913;51.992;9.228;2023-06-10T10:25:32;100389.84;;;28.05;57.69
21504;BME280;10913;51.992;9.228;2023-06-10T10:28:12;100376.38;;;27.92;57.63
21504;BME280;10913;51.992;9.228;2023-06-10T10:30:43;100380.88;;;27.81;57.55
21504;BME280;10913;51.992;9.228;2023-06-10T10:33:18;100378.38;;;27.66;58.77
21504;BME280;10913;51.992;9.228;2023-06-10T10:35:45;100387.97;;;27.59;58.44
21504;BME280;10913;51.992;9.228;2023-06-10T10:38:11;100375.06;;;27.50;59.09
21504;BME280;10913;51.992;9.228;2023-06-10T10:40:37;100376.69;;;27.76;61.74
21504;BME280;10913;51.992;9.228;2023-06-10T10:43:04;100374.06;;;28.10;60.17
21504;BME280;10913;51.992;9.228;2023-06-10T10:45:30;100376.97;;;28.31;57.64
21504;BME280;10913;51.992;9.228;2023-06-10T10:47:55;100375.16;;;28.54;59.53
21504;BME280;10913;51.992;9.228;2023-06-10T10:50:23;100383.31;;;28.76;59.29
21504;BME280;10913;51.992;9.228;2023-06-10T10:52:56;100384.31;;;28.86;58.10
21504;BME280;10913;51.992;9.228;2023-06-10T10:55:25;100381.06;;;29.03;57.86
21504;BME280;10913;51.992;9.228;2023-06-10T10:57:58;100380.06;;;29.16;57.52
21504;BME280;10913;51.992;9.228;2023-06-10T11:00:34;100381.00;;;29.37;58.42
21504;BME280;10913;51.992;9.228;2023-06-10T11:05:39;100373.97;;;29.77;57.28
21504;BME280;10913;51.992;9.228;2023-06-10T11:08:05;100363.00;;;29.89;57.36
21504;BME280;10913;51.992;9.228;2023-06-10T11:10:39;100372.13;;;29.99;57.20
21504;BME280;10913;51.992;9.228;2023-06-10T11:13:14;100364.88;;;30.09;56.55
21504;BME280;10913;51.992;9.228;2023-06-10T11:18:28;100378.53;;;29.45;55.17
21504;BME280;10913;51.992;9.228;2023-06-10T11:33:58;100368.13;;;28.85;57.30
21504;BME280;10913;51.992;9.228;2023-06-10T11:36:25;100360.91;;;29.06;57.02
21504;BME280;10913;51.992;9.228;2023-06-10T11:38:56;100361.72;;;29.29;56.95
21504;BME280;10913;51.992;9.228;2023-06-10T11:41:23;100357.72;;;29.44;56.78
21504;BME280;10913;51.992;9.228;2023-06-10T11:43:50;100352.78;;;29.49;57.47
21504;BME280;10913;51.992;9.228;2023-06-10T11:46:16;100361.88;;;29.59;59.83
21504;BME280;10913;51.992;9.228;2023-06-10T11:48:55;100348.41;;;29.78;58.89
21504;BME280;10913;51.992;9.228;2023-06-10T11:51:21;100347.13;;;29.94;57.69
21504;BME280;10913;51.992;9.228;2023-06-10T11:53:50;100348.88;;;30.15;57.71
21504;BME280;10913;51.992;9.228;2023-06-10T11:56:22;100343.47;;;30.25;56.64
21504;BME280;10913;51.992;9.228;2023-06-10T11:59:06;100340.94;;;30.33;58.23
21504;BME280;10913;51.992;9.228;2023-06-10T12:01:43;100337.69;;;30.49;57.04
21504;BME280;10913;51.992;9.228;2023-06-10T12:04:14;100334.56;;;30.54;57.19
21504;BME280;10913;51.992;9.228;2023-06-10T12:06:50;100339.19;;;30.32;57.19
21504;BME280;10913;51.992;9.228;2023-06-10T12:09:36;100329.50;;;29.98;57.42
21504;BME280;10913;51.992;9.228;2023-06-10T12:12:05;100337.47;;;29.90;58.21
21504;BME280;10913;51.992;9.228;2023-06-10T12:19:58;100340.19;;;30.31;56.86
21504;BME280;10913;51.992;9.228;2023-06-10T12:22:23;100329.09;;;30.23;57.24
21504;BME280;10913;51.992;9.228;2023-06-10T12:24:59;100329.28;;;30.31;58.70
21504;BME280;10913;51.992;9.228;2023-06-10T12:27:25;100329.41;;;30.30;58.94
21504;BME280;10913;51.992;9.228;2023-06-10T12:29:52;100328.19;;;30.43;59.14
21504;BME280;10913;51.992;9.228;2023-06-10T12:32:21;100329.44;;;30.60;59.24
21504;BME280;10913;51.992;9.228;2023-06-10T12:35:02;100320.69;;;30.57;57.59
21504;BME280;10913;51.992;9.228;2023-06-10T12:37:28;100318.88;;;30.46;56.91
21504;BME280;10913;51.992;9.228;2023-06-10T12:39:54;100327.19;;;30.14;58.58
21504;BME280;10913;51.992;9.228;2023-06-10T12:42:22;100317.28;;;29.92;57.53
21504;BME280;10913;51.992;9.228;2023-06-10T12:44:53;100315.00;;;29.56;59.63
21504;BME280;10913;51.992;9.228;2023-06-10T12:47:19;100310.25;;;29.58;60.83
21504;BME280;10913;51.992;9.228;2023-06-10T12:49:44;100321.84;;;29.50;58.32
21504;BME280;10913;51.992;9.228;2023-06-10T12:52:09;100316.66;;;29.47;60.35
21504;BME280;10913;51.992;9.228;2023-06-10T12:54:35;100318.41;;;29.37;60.57
21504;BME280;10913;51.992;9.228;2023-06-10T12:57:00;100305.59;;;29.17;62.14
21504;BME280;10913;51.992;9.228;2023-06-10T12:59:26;100310.25;;;29.26;60.84
21504;BME280;10913;51.992;9.228;2023-06-10T13:01:53;100312.94;;;29.37;59.62
21504;BME280;10913;51.992;9.228;2023-06-10T13:04:19;100312.44;;;29.43;60.00
21504;BME280;10913;51.992;9.228;2023-06-10T13:06:45;100316.91;;;29.44;60.75
21504;BME280;10913;51.992;9.228;2023-06-10T13:09:12;100312.69;;;29.40;59.77
21504;BME280;10913;51.992;9.228;2023-06-10T13:11:37;100317.88;;;29.43;59.94
21504;BME280;10913;51.992;9.228;2023-06-10T13:14:04;100314.94;;;29.35;58.91
21504;BME280;10913;51.992;9.228;2023-06-10T13:16:31;100322.97;;;29.36;59.28
21504;BME280;10913;51.992;9.228;2023-06-10T13:18:56;100309.00;;;29.30;58.19
21504;BME280;10913;51.992;9.228;2023-06-10T13:21:21;100308.59;;;29.13;59.79